createdAt,value
2019-01-30T00:01:55.656Z,93273.24
2019-01-30T00:04:25.731Z,93264.98
2019-01-30T00:06:56.780Z,93266.05
2019-01-30T00:09:26.950Z,93252.55
2019-01-30T00:11:56.954Z,93241.11
2019-01-30T00:14:26.930Z,93241.97
2019-01-30T00:16:56.965Z,93234.53
2019-01-30T00:19:26.963Z,93233.92
2019-01-30T00:21:57.078Z,93221.12
2019-01-30T00:24:28.286Z,93225.36
2019-01-30T00:26:58.342Z,93216.97
2019-01-30T00:29:28.231Z,93211.66
2019-01-30T00:31:59.884Z,93209.46
2019-01-30T00:34:29.724Z,93195.56
2019-01-30T00:36:59.660Z,93195.04
2019-01-30T00:39:29.519Z,93189.20
2019-01-30T00:41:59.402Z,93190.95
2019-01-30T00:44:30.964Z,93179.36
2019-01-30T00:47:00.960Z,93176.69
2019-01-30T00:49:30.949Z,93171.29
2019-01-30T00:52:01.072Z,93176.17
2019-01-30T00:54:32.096Z,93163.78
2019-01-30T00:57:02.174Z,93155.78
2019-01-30T00:59:32.150Z,93159.88
2019-01-30T01:02:02.113Z,93155.63
2019-01-30T01:04:33.903Z,93145.73
2019-01-30T01:07:03.971Z,93150.94
2019-01-30T01:09:33.998Z,93148.45
2019-01-30T01:12:04.007Z,93145.15
2019-01-30T01:14:34.041Z,93143.95
2019-01-30T01:17:03.952Z,93147.52
2019-01-30T01:19:34.002Z,93143.44
2019-01-30T01:22:04.255Z,93146.09
2019-01-30T01:24:34.209Z,93145.03
2019-01-30T01:27:04.132Z,93139.94
2019-01-30T01:29:35.112Z,93143.63
2019-01-30T01:32:05.230Z,93146.95
2019-01-30T01:34:35.152Z,93142.49
2019-01-30T01:37:05.468Z,93135.67
2019-01-30T01:39:35.485Z,93132.75
2019-01-30T01:42:05.533Z,93127.75
2019-01-30T01:47:24.467Z,93125.86
2019-01-30T01:49:54.332Z,93126.72
2019-01-30T01:52:24.272Z,93122.59
2019-01-30T01:54:54.246Z,93123.98
2019-01-30T01:57:24.121Z,93121.50
2019-01-30T01:59:54.168Z,93122.39
2019-01-30T02:02:24.053Z,93111.58
2019-01-30T02:04:54.042Z,93109.72
2019-01-30T02:07:24.091Z,93102.53
2019-01-30T02:09:54.097Z,93103.15
2019-01-30T02:12:23.973Z,93092.00
2019-01-30T02:14:53.939Z,93091.16
2019-01-30T02:17:23.984Z,93087.74
2019-01-30T02:19:54.018Z,93084.16
2019-01-30T02:22:24.022Z,93080.56
2019-01-30T02:24:54.100Z,93071.95
2019-01-30T02:27:23.936Z,93076.23
2019-01-30T02:29:53.974Z,93068.72
2019-01-30T02:32:23.969Z,93067.40
2019-01-30T02:34:53.972Z,93065.35
2019-01-30T02:37:23.818Z,93058.17
2019-01-30T02:39:57.060Z,93056.17
2019-01-30T02:42:27.088Z,93047.97
2019-01-30T02:44:57.129Z,93043.34
2019-01-30T02:47:27.134Z,93043.48
2019-01-30T02:49:56.997Z,93036.99
2019-01-30T02:52:27.008Z,93034.37
2019-01-30T02:54:56.955Z,93032.22
2019-01-30T02:57:26.908Z,93031.33
2019-01-30T02:59:56.834Z,93022.66
2019-01-30T03:02:26.887Z,93025.70
2019-01-30T03:04:56.795Z,93028.62
2019-01-30T03:07:26.830Z,93020.69
2019-01-30T03:09:56.785Z,93018.29
2019-01-30T03:12:26.752Z,93016.19
2019-01-30T03:14:56.712Z,93019.65
2019-01-30T03:17:26.677Z,93020.91
2019-01-30T03:19:56.591Z,93025.67
2019-01-30T03:22:26.468Z,93013.79
2019-01-30T03:24:56.442Z,93008.30
2019-01-30T03:27:26.346Z,93005.23
2019-01-30T03:29:56.387Z,93011.20
2019-01-30T03:32:26.381Z,93005.62
2019-01-30T03:34:56.415Z,93007.65
2019-01-30T03:37:26.229Z,93008.62
2019-01-30T03:39:56.081Z,92999.62
2019-01-30T03:42:26.059Z,93002.98
2019-01-30T03:44:56.038Z,93005.09
2019-01-30T03:47:26.174Z,93008.02
2019-01-30T03:49:56.133Z,93005.41
2019-01-30T03:52:26.069Z,93003.47
2019-01-30T03:54:56.200Z,92992.66
2019-01-30T03:57:28.848Z,92997.95
2019-01-30T03:59:57.850Z,92990.52
2019-01-30T04:02:27.844Z,92985.56
2019-01-30T04:04:57.806Z,92990.70
2019-01-30T04:07:27.871Z,92986.47
2019-01-30T04:09:57.962Z,92986.98
2019-01-30T04:12:28.010Z,92987.34
2019-01-30T04:14:57.998Z,92981.47
2019-01-30T04:17:27.948Z,92980.23
2019-01-30T04:19:57.793Z,92981.24
2019-01-30T04:22:27.719Z,92980.17
2019-01-30T04:24:57.636Z,92971.61
2019-01-30T04:27:27.905Z,92973.61
2019-01-30T04:29:57.918Z,92975.16
2019-01-30T04:32:27.941Z,92977.83
2019-01-30T04:34:57.807Z,92971.41
2019-01-30T04:37:27.846Z,92979.23
2019-01-30T04:39:57.771Z,92965.35
2019-01-30T04:42:27.642Z,92967.33
2019-01-30T04:44:57.532Z,92964.81
2019-01-30T04:47:27.665Z,92958.50
2019-01-30T04:49:57.663Z,92956.44
2019-01-30T04:52:27.598Z,92955.35
2019-01-30T04:54:57.686Z,92961.16
2019-01-30T04:57:27.675Z,92954.94
2019-01-30T04:59:58.685Z,92956.19
2019-01-30T05:02:28.647Z,92956.98
2019-01-30T05:04:58.684Z,92956.66
2019-01-30T05:07:28.711Z,92949.47
2019-01-30T05:09:58.812Z,92947.84
2019-01-30T05:12:28.653Z,92951.23
2019-01-30T05:14:58.614Z,92951.87
2019-01-30T05:17:28.555Z,92949.42
2019-01-30T05:19:58.522Z,92951.03
2019-01-30T05:22:28.464Z,92954.31
2019-01-30T05:24:58.372Z,92949.74
2019-01-30T05:27:28.243Z,92954.83
2019-01-30T05:29:58.223Z,92956.55
2019-01-30T05:32:28.217Z,92952.02
2019-01-30T05:34:58.081Z,92946.73
2019-01-30T05:37:27.974Z,92945.48
2019-01-30T05:39:57.866Z,92945.29
2019-01-30T05:42:27.737Z,92941.53
2019-01-30T05:44:57.723Z,92937.77
2019-01-30T05:47:27.672Z,92938.17
2019-01-30T05:49:58.603Z,92937.67
2019-01-30T05:52:28.550Z,92934.91
2019-01-30T05:54:58.547Z,92927.70
2019-01-30T05:57:28.495Z,92933.02
2019-01-30T05:59:58.405Z,92940.33
2019-01-30T06:02:28.374Z,92935.31
2019-01-30T06:04:58.342Z,92937.26
2019-01-30T06:07:28.241Z,92934.53
2019-01-30T06:09:58.332Z,92931.23
2019-01-30T06:12:28.315Z,92934.84
2019-01-30T06:14:58.268Z,92928.91
2019-01-30T06:17:28.112Z,92927.23
2019-01-30T06:19:58.010Z,92935.59
2019-01-30T06:22:27.895Z,92935.35
2019-01-30T06:24:57.904Z,92930.14
2019-01-30T06:27:27.812Z,92928.34
2019-01-30T06:29:57.656Z,92935.06
2019-01-30T06:32:27.764Z,92928.37
2019-01-30T06:34:57.659Z,92935.02
2019-01-30T06:37:27.748Z,92934.80
2019-01-30T06:39:57.656Z,92934.78
2019-01-30T06:42:27.616Z,92933.59
2019-01-30T06:44:57.532Z,92933.28
2019-01-30T06:47:27.605Z,92946.50
2019-01-30T06:49:57.430Z,92947.45
2019-01-30T06:52:27.445Z,92945.58
2019-01-30T06:54:57.334Z,92952.63
2019-01-30T06:57:27.194Z,92949.94
2019-01-30T06:59:57.139Z,92947.23
2019-01-30T07:02:32.240Z,92949.44
2019-01-30T07:04:58.826Z,92947.97
2019-01-30T07:07:28.741Z,92961.31
2019-01-30T07:09:58.728Z,92965.27
2019-01-30T07:12:28.746Z,92971.20
2019-01-30T07:14:58.639Z,92965.38
2019-01-30T07:17:28.655Z,92958.95
2019-01-30T07:19:58.693Z,92963.88
2019-01-30T07:22:28.517Z,92957.75
2019-01-30T07:24:58.463Z,92956.63
2019-01-30T07:27:28.409Z,92950.27
2019-01-30T07:29:58.473Z,92944.50
2019-01-30T07:32:28.475Z,92943.61
2019-01-30T07:34:58.438Z,92942.63
2019-01-30T07:37:28.386Z,92939.47
2019-01-30T07:39:58.360Z,92941.29
2019-01-30T07:42:28.301Z,92948.20
2019-01-30T07:44:58.139Z,92955.30
2019-01-30T07:47:28.175Z,92961.74
2019-01-30T07:49:58.092Z,92963.52
2019-01-30T07:52:28.110Z,92964.31
2019-01-30T07:54:58.034Z,92969.16
2019-01-30T07:57:28.074Z,92971.38
2019-01-30T07:59:57.907Z,92975.45
2019-01-30T08:02:27.921Z,92981.30
2019-01-30T08:04:57.756Z,92982.91
2019-01-30T08:07:27.841Z,92983.89
2019-01-30T08:09:57.880Z,92983.02
2019-01-30T08:12:27.910Z,92984.75
2019-01-30T08:14:57.894Z,92992.70
2019-01-30T08:17:27.874Z,92992.65
2019-01-30T08:19:57.824Z,92992.64
2019-01-30T08:22:27.854Z,92992.17
2019-01-30T08:24:57.731Z,93001.73
2019-01-30T08:27:27.879Z,93008.97
2019-01-30T08:29:57.996Z,93016.34
2019-01-30T08:32:28.256Z,93016.95
2019-01-30T08:34:58.298Z,93017.91
2019-01-30T08:37:28.183Z,93024.70
2019-01-30T08:39:58.125Z,93027.70
2019-01-30T08:42:27.964Z,93026.09
2019-01-30T08:44:57.977Z,93027.70
2019-01-30T08:47:27.957Z,93032.31
2019-01-30T08:49:58.010Z,93032.32
2019-01-30T08:52:27.923Z,93037.55
2019-01-30T08:54:57.857Z,93045.50
2019-01-30T08:57:27.810Z,93048.09
2019-01-30T08:59:57.768Z,93054.11
2019-01-30T09:02:28.691Z,93065.29
2019-01-30T09:04:58.748Z,93080.05
2019-01-30T09:07:28.672Z,93084.22
2019-01-30T09:09:58.744Z,93083.55
2019-01-30T09:12:28.778Z,93080.61
2019-01-30T09:14:58.775Z,93084.05
2019-01-30T09:17:28.837Z,93090.30
2019-01-30T09:19:58.742Z,93111.59
2019-01-30T09:22:28.678Z,93116.56
2019-01-30T09:24:58.530Z,93120.08
2019-01-30T09:27:28.554Z,93123.28
2019-01-30T09:29:58.475Z,93132.98
2019-01-30T09:32:28.434Z,93148.98
2019-01-30T09:34:58.404Z,93143.14
2019-01-30T09:37:28.444Z,93157.16
2019-01-30T09:39:58.308Z,93160.03
2019-01-30T09:42:28.215Z,93168.34
2019-01-30T09:44:58.060Z,93177.07
2019-01-30T09:47:28.113Z,93191.38
2019-01-30T09:49:58.214Z,93202.30
2019-01-30T09:52:28.457Z,93221.88
2019-01-30T09:54:58.357Z,93220.73
2019-01-30T09:57:28.205Z,93222.33
2019-01-30T09:59:58.154Z,93226.14
2019-01-30T10:02:28.072Z,93222.81
2019-01-30T10:04:58.012Z,93216.85
2019-01-30T10:07:27.998Z,93202.33
2019-01-30T10:09:57.975Z,93207.41
2019-01-30T10:12:27.825Z,93208.28
2019-01-30T10:14:58.090Z,93210.31
2019-01-30T10:17:31.072Z,93215.13
2019-01-30T10:20:00.012Z,93220.36
2019-01-30T10:22:29.927Z,93217.73
2019-01-30T10:24:59.798Z,93231.28
2019-01-30T10:27:29.734Z,93235.81
2019-01-30T10:29:59.569Z,93232.31
2019-01-30T10:32:29.537Z,93233.69
2019-01-30T10:34:59.417Z,93238.45
2019-01-30T10:37:29.397Z,93226.52
2019-01-30T10:39:59.306Z,93229.34
2019-01-30T10:42:29.318Z,93225.44
2019-01-30T10:44:59.322Z,93229.86
2019-01-30T10:47:29.252Z,93228.20
2019-01-30T10:49:59.226Z,93225.68
2019-01-30T10:52:29.233Z,93228.64
2019-01-30T10:54:59.153Z,93226.83
2019-01-30T10:57:29.191Z,93219.70
2019-01-30T10:59:59.118Z,93219.39
2019-01-30T11:02:29.140Z,93224.77
2019-01-30T11:04:59.012Z,93224.93
2019-01-30T11:07:28.917Z,93234.17
2019-01-30T11:09:58.836Z,93230.34
2019-01-30T11:12:28.694Z,93231.61
2019-01-30T11:14:58.671Z,93227.98
2019-01-30T11:17:28.664Z,93223.00
2019-01-30T11:19:58.711Z,93223.55
2019-01-30T11:22:28.707Z,93219.68
2019-01-30T11:24:58.724Z,93220.33
2019-01-30T11:27:28.724Z,93216.57
2019-01-30T11:29:58.709Z,93218.34
2019-01-30T11:32:28.670Z,93220.17
2019-01-30T11:34:58.706Z,93210.56
2019-01-30T11:37:28.645Z,93210.50
2019-01-30T11:39:58.664Z,93208.91
2019-01-30T11:42:28.900Z,93211.87
2019-01-30T11:44:58.757Z,93208.34
2019-01-30T11:47:28.766Z,93207.23
2019-01-30T11:49:58.778Z,93213.95
2019-01-30T11:52:28.802Z,93210.84
2019-01-30T11:54:58.813Z,93204.86
2019-01-30T11:57:28.777Z,93201.22
2019-01-30T11:59:58.737Z,93212.80
2019-01-30T12:02:28.733Z,93203.08
2019-01-30T12:04:58.564Z,93206.08
2019-01-30T12:07:28.607Z,93202.34
2019-01-30T12:09:58.621Z,93202.69
2019-01-30T12:12:28.721Z,93200.56
2019-01-30T12:14:58.674Z,93205.72
2019-01-30T12:17:28.628Z,93219.08
2019-01-30T12:19:58.615Z,93202.56
2019-01-30T12:22:28.428Z,93204.48
2019-01-30T12:24:58.447Z,93207.33
2019-01-30T12:27:28.447Z,93211.77
2019-01-30T12:29:58.308Z,93213.61
2019-01-30T12:32:29.291Z,93201.54
2019-01-30T12:34:59.315Z,93209.89
2019-01-30T12:37:29.479Z,93203.94
2019-01-30T12:39:59.526Z,93208.88
2019-01-30T12:42:29.536Z,93207.75
2019-01-30T12:44:59.598Z,93201.09
2019-01-30T12:47:31.362Z,93210.92
2019-01-30T12:50:01.525Z,93206.69
2019-01-30T12:52:31.516Z,93207.67
2019-01-30T12:55:01.683Z,93205.77
2019-01-30T12:57:31.719Z,93202.98
2019-01-30T13:00:01.603Z,93208.57
2019-01-30T13:02:31.616Z,93202.42
2019-01-30T13:05:01.762Z,93205.53
2019-01-30T13:07:31.910Z,93203.56
2019-01-30T13:10:01.875Z,93207.09
2019-01-30T13:12:31.817Z,93215.29
2019-01-30T13:15:01.797Z,93208.89
2019-01-30T13:17:31.826Z,93217.69
2019-01-30T13:20:01.648Z,93212.77
2019-01-30T13:22:31.614Z,93218.41
2019-01-30T13:25:02.602Z,93210.91
2019-01-30T13:27:32.657Z,93225.41
2019-01-30T13:30:05.204Z,93214.38
2019-01-30T13:32:35.313Z,93221.19
2019-01-30T13:35:06.259Z,93220.83
2019-01-30T13:37:37.940Z,93229.97
2019-01-30T13:40:12.485Z,93233.61
2019-01-30T13:42:42.713Z,93225.67
2019-01-30T13:45:14.053Z,93233.61
2019-01-30T13:47:44.133Z,93232.75
2019-01-30T13:50:16.977Z,93233.45
2019-01-30T13:52:46.977Z,93249.23
2019-01-30T13:55:17.192Z,93240.59
2019-01-30T13:57:47.210Z,93245.24
2019-01-30T14:00:20.231Z,93259.84
2019-01-30T14:02:50.302Z,93251.24
2019-01-30T14:05:21.337Z,93258.48
2019-01-30T14:07:52.086Z,93255.80
2019-01-30T14:10:22.641Z,93262.61
2019-01-30T14:12:52.657Z,93268.44
2019-01-30T14:15:24.568Z,93279.83
2019-01-30T14:17:54.655Z,93279.63
2019-01-30T14:20:24.823Z,93282.70
2019-01-30T14:22:54.774Z,93284.58
2019-01-30T14:25:25.022Z,93287.23
2019-01-30T14:27:54.990Z,93295.40
2019-01-30T14:30:30.368Z,93297.09
2019-01-30T14:33:00.539Z,93314.55
2019-01-30T14:35:32.932Z,93325.91
2019-01-30T14:38:02.838Z,93309.16
2019-01-30T14:40:32.828Z,93311.41
2019-01-30T14:43:02.850Z,93309.89
2019-01-30T14:45:32.766Z,93315.64
2019-01-30T14:48:02.922Z,93307.64
2019-01-30T14:50:33.113Z,93314.92
2019-01-30T14:53:03.034Z,93311.41
2019-01-30T14:55:33.166Z,93307.16
2019-01-30T14:58:03.298Z,93317.58
2019-01-30T15:00:33.969Z,93331.31
2019-01-30T15:03:03.911Z,93304.48
2019-01-30T15:05:33.924Z,93304.46
2019-01-30T15:08:04.160Z,93310.45
2019-01-30T15:10:33.988Z,93326.91
2019-01-30T15:13:04.542Z,93318.38
2019-01-30T15:15:34.480Z,93316.30
2019-01-30T15:18:04.926Z,93324.08
2019-01-30T15:20:35.813Z,93316.11
2019-01-30T15:23:07.270Z,93335.60
2019-01-30T15:25:37.252Z,93323.44
2019-01-30T15:28:07.730Z,93322.67
2019-01-30T15:30:43.427Z,93336.61
2019-01-30T15:33:13.514Z,93326.33
2019-01-30T15:35:43.646Z,93334.53
2019-01-30T15:38:15.482Z,93338.64
2019-01-30T15:40:45.788Z,93333.48
2019-01-30T15:43:15.876Z,93348.63
2019-01-30T15:45:45.845Z,93342.49
2019-01-30T15:48:16.221Z,93341.38
2019-01-30T15:50:49.660Z,93365.47
2019-01-30T15:53:26.966Z,93359.28
2019-01-30T15:55:58.928Z,93350.41
2019-01-30T15:58:29.508Z,93373.94
2019-01-30T16:01:16.401Z,93377.22
2019-01-30T16:03:46.425Z,93380.13
2019-01-30T16:06:16.402Z,93364.36
2019-01-30T16:08:46.392Z,93380.98
2019-01-30T16:11:16.468Z,93371.95
2019-01-30T16:13:48.116Z,93381.36
2019-01-30T16:16:18.282Z,93382.14
2019-01-30T16:18:48.202Z,93383.19
2019-01-30T16:21:19.474Z,93383.67
2019-01-30T16:23:49.458Z,93387.91
2019-01-30T16:26:21.236Z,93390.81
2019-01-30T16:28:51.111Z,93381.18
2019-01-30T16:31:21.170Z,93391.11
2019-01-30T16:33:52.075Z,93385.86
2019-01-30T16:36:22.020Z,93397.69
2019-01-30T16:38:52.118Z,93392.14
2019-01-30T16:41:22.142Z,93410.33
2019-01-30T16:43:52.081Z,93400.92
2019-01-30T16:46:22.089Z,93394.00
2019-01-30T16:48:52.006Z,93404.48
2019-01-30T16:51:22.040Z,93408.87
2019-01-30T16:53:52.016Z,93414.56
2019-01-30T16:56:22.103Z,93413.11
2019-01-30T16:58:52.139Z,93424.00
2019-01-30T17:01:22.202Z,93431.11
2019-01-30T17:03:52.160Z,93434.53
2019-01-30T17:06:22.182Z,93429.66
2019-01-30T17:08:52.178Z,93437.61
2019-01-30T17:11:22.249Z,93430.44
2019-01-30T17:13:52.151Z,93433.68
2019-01-30T17:16:22.166Z,93433.41
2019-01-30T17:18:52.132Z,93440.02
2019-01-30T17:21:22.128Z,93445.73
2019-01-30T17:23:52.117Z,93440.88
2019-01-30T17:26:22.181Z,93441.16
2019-01-30T17:28:52.059Z,93450.12
2019-01-30T17:31:28.375Z,93448.33
2019-01-30T17:33:58.350Z,93449.95
2019-01-30T17:36:28.365Z,93456.70
2019-01-30T17:38:58.370Z,93470.59
2019-01-30T17:41:28.312Z,93460.01
2019-01-30T17:43:58.320Z,93461.81
2019-01-30T17:46:28.349Z,93469.48
2019-01-30T17:48:58.194Z,93470.36
2019-01-30T17:51:28.218Z,93478.72
2019-01-30T17:53:58.112Z,93468.05
2019-01-30T17:56:28.146Z,93478.69
2019-01-30T17:58:58.263Z,93487.59
2019-01-30T18:01:28.312Z,93485.97
2019-01-30T18:03:58.292Z,93488.86
2019-01-30T18:06:29.981Z,93494.39
2019-01-30T18:09:00.213Z,93496.98
2019-01-30T18:11:30.295Z,93504.38
2019-01-30T18:14:00.243Z,93502.81
2019-01-30T18:16:30.340Z,93502.33
2019-01-30T18:19:00.218Z,93500.77
2019-01-30T18:21:32.098Z,93509.06
2019-01-30T18:24:01.835Z,93502.27
2019-01-30T18:26:31.931Z,93510.69
2019-01-30T18:29:02.038Z,93514.56
2019-01-30T18:31:33.658Z,93517.92
2019-01-30T18:34:03.579Z,93514.13
2019-01-30T18:36:40.690Z,93528.02
2019-01-30T18:39:08.576Z,93525.50
2019-01-30T18:41:38.553Z,93529.11
2019-01-30T18:44:08.430Z,93527.37
2019-01-30T18:46:38.640Z,93522.55
2019-01-30T18:49:08.562Z,93521.87
2019-01-30T18:51:38.486Z,93531.52
2019-01-30T18:54:27.446Z,93533.91
2019-01-30T18:56:57.374Z,93538.23
2019-01-30T18:59:27.519Z,93537.37
2019-01-30T19:01:57.378Z,93549.91
2019-01-30T19:04:27.401Z,93540.45
2019-01-30T19:06:57.518Z,93533.77
2019-01-30T19:09:27.508Z,93539.64
2019-01-30T19:11:57.452Z,93532.67
2019-01-30T19:14:27.441Z,93546.44
2019-01-30T19:16:57.495Z,93547.74
2019-01-30T19:19:27.505Z,93550.40
2019-01-30T19:21:57.481Z,93544.01
2019-01-30T19:24:27.416Z,93539.64
2019-01-30T19:26:57.428Z,93566.71
2019-01-30T19:29:27.349Z,93543.34
2019-01-30T19:31:57.277Z,93546.87
2019-01-30T19:34:27.196Z,93550.56
2019-01-30T19:39:33.180Z,93548.29
2019-01-30T19:42:03.162Z,93543.59
2019-01-30T19:44:33.708Z,93544.63
2019-01-30T19:47:03.775Z,93556.33
2019-01-30T19:49:33.688Z,93550.67
2019-01-30T19:52:03.966Z,93552.23
2019-01-30T19:54:33.882Z,93557.89
2019-01-30T19:57:03.918Z,93551.80
2019-01-30T19:59:33.894Z,93555.83
2019-01-30T20:02:04.106Z,93559.47
2019-01-30T20:04:53.060Z,93549.83
2019-01-30T20:07:23.038Z,93557.59
2019-01-30T20:09:54.047Z,93558.72
2019-01-30T20:12:24.219Z,93552.66
2019-01-30T20:14:54.347Z,93561.66
2019-01-30T20:17:24.538Z,93561.89
2019-01-30T20:19:54.496Z,93560.19
2019-01-30T20:22:24.430Z,93560.36
2019-01-30T20:24:54.500Z,93565.94
2019-01-30T20:27:24.562Z,93566.76
2019-01-30T20:29:54.724Z,93565.63
2019-01-30T20:32:24.546Z,93562.80
2019-01-30T20:34:55.747Z,93572.44
2019-01-30T20:37:26.530Z,93566.81
2019-01-30T20:39:56.811Z,93564.77
2019-01-30T20:42:27.082Z,93567.91
2019-01-30T20:44:57.166Z,93570.77
2019-01-30T20:47:27.124Z,93572.67
2019-01-30T20:49:56.975Z,93569.09
2019-01-30T20:52:27.120Z,93571.58
2019-01-30T20:54:59.899Z,93573.70
2019-01-30T20:57:28.840Z,93569.45
2019-01-30T20:59:58.896Z,93576.05
2019-01-30T21:02:29.036Z,93573.78
2019-01-30T21:04:59.060Z,93576.78
2019-01-30T21:07:37.020Z,93574.56
2019-01-30T21:10:00.804Z,93575.20
2019-01-30T21:12:30.759Z,93576.58
2019-01-30T21:15:01.850Z,93573.44
2019-01-30T21:17:31.921Z,93574.73
2019-01-30T21:20:01.768Z,93576.64
2019-01-30T21:22:32.732Z,93577.45
2019-01-30T21:25:02.610Z,93579.67
2019-01-30T21:27:33.544Z,93579.91
2019-01-30T21:30:03.564Z,93579.16
2019-01-30T21:32:33.521Z,93584.54
2019-01-30T21:35:03.528Z,93582.89
2019-01-30T21:37:33.468Z,93579.17
2019-01-30T21:40:03.732Z,93584.71
2019-01-30T21:42:33.576Z,93584.17
2019-01-30T21:45:03.591Z,93580.88
2019-01-30T21:47:33.519Z,93584.67
2019-01-30T21:50:03.498Z,93581.23
2019-01-30T21:52:33.348Z,93591.97
2019-01-30T21:55:04.073Z,93584.61
2019-01-30T21:57:53.201Z,93581.36
2019-01-30T22:00:25.030Z,93578.53
2019-01-30T22:02:56.151Z,93585.67
2019-01-30T22:05:26.451Z,93579.69
2019-01-30T22:08:01.103Z,93581.27
2019-01-30T22:10:29.532Z,93579.39
2019-01-30T22:12:59.546Z,93581.75
2019-01-30T22:15:29.623Z,93584.92
2019-01-30T22:17:59.654Z,93586.06
2019-01-30T22:20:29.756Z,93591.22
2019-01-30T22:23:00.045Z,93585.92
2019-01-30T22:25:29.953Z,93590.63
2019-01-30T22:27:59.953Z,93589.86
2019-01-30T22:30:32.278Z,93594.60
2019-01-30T22:33:02.331Z,93596.82
2019-01-30T22:35:32.257Z,93594.80
2019-01-30T22:38:12.173Z,93599.88
2019-01-30T22:40:33.906Z,93601.91
2019-01-30T22:43:03.954Z,93595.15
2019-01-30T22:45:33.982Z,93589.77
2019-01-30T22:48:03.931Z,93590.23
2019-01-30T22:50:33.915Z,93588.66
2019-01-30T22:53:03.899Z,93588.96
2019-01-30T22:55:33.940Z,93594.62
2019-01-30T22:58:04.194Z,93593.02
2019-01-30T23:01:13.297Z,93589.89
2019-01-30T23:03:47.999Z,93591.16
2019-01-30T23:06:45.012Z,93590.13
2019-01-30T23:10:04.415Z,93587.62
2019-01-30T23:12:55.782Z,93591.89
2019-01-30T23:16:02.985Z,93592.42
2019-01-30T23:18:44.371Z,93589.14
2019-01-30T23:21:22.241Z,93575.11
2019-01-30T23:24:33.077Z,93570.84
2019-01-30T23:27:09.989Z,93579.56
2019-01-30T23:30:19.233Z,93574.84
2019-01-30T23:33:27.191Z,93575.22
2019-01-30T23:36:27.492Z,93578.22
2019-01-30T23:39:11.108Z,93570.66
2019-01-30T23:42:06.262Z,93568.16
2019-01-30T23:45:32.539Z,93567.72
2019-01-30T23:48:20.739Z,93567.59
2019-01-30T23:51:49.907Z,93569.38
2019-01-30T23:54:45.785Z,93565.38
2019-01-30T23:57:57.065Z,93566.50
